Time;durP1;ratioP1;P1;durP2;ratioP2;P2;SDS_P1;SDS_P2;PMS_P1;PMS_P2;Temp;Humidity;BMP_temperature;BMP_pressure;BME280_temperature;BME280_humidity;BME280_pressure;Samples;Min_cycle;Max_cycle;Signal;HPM_P1;HPM_P2
2023/05/21 00:01:51;;;;;;;6.67;3.27;;;;;;;16.96;61.90;101714.28;5169559;28;20034;-84
2023/05/21 00:04:39;;;;;;;5.18;3.50;;;;;;;17.03;61.98;101724.31;5139554;28;20051;-83
2023/05/21 00:07:11;;;;;;;6.07;3.60;;;;;;;16.66;62.71;101676.75;5153695;28;20029;-83
2023/05/21 00:09:43;;;;;;;4.70;3.30;;;;;;;16.61;63.53;101685.03;5169914;28;20096;-83
2023/05/21 00:12:14;;;;;;;4.63;2.77;;;;;;;16.62;63.32;101680.56;5171191;28;20026;-82
2023/05/21 00:14:48;;;;;;;6.87;3.40;;;;;;;16.38;64.33;101665.50;5168822;28;20077;-82
2023/05/21 00:17:19;;;;;;;6.38;4.38;;;;;;;16.62;64.35;101697.28;5170881;28;20558;-83
2023/05/21 00:19:53;;;;;;;9.53;3.10;;;;;;;16.23;66.15;101673.59;5157104;28;20031;-82
2023/05/21 00:22:25;;;;;;;7.55;3.78;;;;;;;16.30;65.99;101679.28;5158189;28;20657;-82
2023/05/21 00:25:02;;;;;;;5.40;3.53;;;;;;;16.96;63.41;101722.22;5165239;28;20023;-84
2023/05/21 00:27:39;;;;;;;4.07;3.00;;;;;;;16.62;65.94;101717.56;5159710;28;20039;-82
2023/05/21 00:30:16;;;;;;;4.60;3.80;;;;;;;16.02;67.12;101670.66;5157900;28;20030;-83
2023/05/21 00:32:47;;;;;;;6.73;3.90;;;;;;;16.20;65.30;101650.88;5173749;28;20084;-84
2023/05/21 00:35:21;;;;;;;5.33;3.57;;;;;;;15.94;67.28;101652.66;5173142;28;20047;-84
2023/05/21 00:37:52;;;;;;;4.38;3.70;;;;;;;16.42;64.91;101665.19;5172241;28;20023;-82
2023/05/21 00:40:24;;;;;;;5.47;4.07;;;;;;;16.43;65.29;101669.53;5167660;28;20034;-83
2023/05/21 00:42:58;;;;;;;6.83;5.33;;;;;;;16.36;67.09;101699.13;5154006;29;20031;-82
2023/05/21 00:45:30;;;;;;;10.13;7.30;;;;;;;16.28;65.70;101650.34;5154250;29;20031;-83
2023/05/21 00:48:07;;;;;;;9.17;7.13;;;;;;;16.37;65.64;101650.63;5155701;28;20560;-84
2023/05/21 00:50:39;;;;;;;9.23;6.90;;;;;;;16.16;66.54;101653.84;5173878;28;20034;-82
2023/05/21 00:53:14;;;;;;;9.83;6.73;;;;;;;16.32;65.76;101659.72;5189289;28;20019;-84
2023/05/21 00:55:52;;;;;;;10.00;8.00;;;;;;;15.99;67.98;101647.09;5172165;28;20027;-83
2023/05/21 00:58:24;;;;;;;10.20;7.70;;;;;;;15.65;69.58;101630.00;5154144;29;20038;-84
2023/05/21 01:01:02;;;;;;;10.13;7.70;;;;;;;15.92;68.60;101650.13;5152895;28;20452;-85
2023/05/21 01:03:37;;;;;;;8.40;7.50;;;;;;;15.69;70.07;101636.72;5168131;28;20479;-84
2023/05/21 01:06:13;;;;;;;8.67;6.43;;;;;;;16.17;67.74;101668.75;5158507;28;20023;-83
2023/05/21 01:08:47;;;;;;;9.90;5.90;;;;;;;16.18;68.97;101689.75;5172795;28;20117;-83
2023/05/21 01:11:20;;;;;;;10.60;6.07;;;;;;;16.12;69.72;101699.94;5160023;28;20034;-83
2023/05/21 01:13:55;;;;;;;5.23;4.50;;;;;;;15.90;70.58;101675.00;5169795;28;20557;-82
2023/05/21 01:16:28;;;;;;;7.60;4.70;;;;;;;15.55;70.99;101640.31;5166413;28;20027;-82
2023/05/21 01:19:04;;;;;;;5.00;4.45;;;;;;;15.77;70.62;101648.56;5161611;28;20662;-83
2023/05/21 01:21:45;;;;;;;7.60;4.73;;;;;;;15.84;71.12;101658.63;5157195;28;20467;-82
2023/05/21 01:24:17;;;;;;;7.53;4.40;;;;;;;15.52;72.37;101651.09;5153237;28;20176;-81
2023/05/21 01:26:48;;;;;;;9.00;5.07;;;;;;;15.99;69.73;101660.28;5172543;28;20117;-81
2023/05/21 01:29:20;;;;;;;8.17;4.53;;;;;;;15.94;71.26;101695.78;5172734;28;20152;-83
2023/05/21 01:32:08;;;;;;;12.50;4.23;;;;;;;16.01;70.61;101676.88;5173074;28;20034;-82
2023/05/21 01:34:47;;;;;;;5.13;3.93;;;;;;;15.78;72.57;101666.13;5152537;28;20042;-82
2023/05/21 01:37:30;;;;;;;6.30;3.40;;;;;;;16.02;71.11;101689.16;5163296;28;20586;-82
2023/05/21 01:40:17;;;;;;;5.47;3.77;;;;;;;16.08;70.45;101684.28;5171232;28;20033;-82
2023/05/21 01:42:52;;;;;;;5.17;3.37;;;;;;;15.57;72.85;101658.69;5171150;28;20031;-83
2023/05/21 01:45:31;;;;;;;4.77;3.77;;;;;;;15.31;73.89;101627.00;5172286;28;20045;-84
2023/05/21 01:48:04;;;;;;;9.13;3.83;;;;;;;15.51;73.87;101667.03;5155052;28;20529;-84
2023/05/21 01:50:38;;;;;;;6.40;3.70;;;;;;;15.77;73.52;101690.81;5135923;28;20031;-84
2023/05/21 01:53:17;;;;;;;6.03;3.97;;;;;;;15.66;74.71;101687.13;5162977;28;20023;-83
2023/05/21 01:55:51;;;;;;;5.23;4.00;;;;;;;15.35;74.37;101639.91;5171496;28;20027;-82
2023/05/21 01:58:24;;;;;;;5.80;3.78;;;;;;;15.63;74.48;101691.75;5151429;29;20023;-84
2023/05/21 02:01:19;;;;;;;4.10;3.53;;;;;;;15.89;70.00;101634.50;5161264;28;20062;-83
2023/05/21 02:03:50;;;;;;;8.00;4.20;;;;;;;15.78;73.01;101666.13;5154954;28;20422;-83
2023/05/21 02:06:22;;;;;;;4.27;3.67;;;;;;;15.64;73.29;101657.34;5171688;28;20023;-83
2023/05/21 02:08:56;;;;;;;5.87;4.00;;;;;;;15.33;74.63;101631.25;5161678;28;20023;-83
2023/05/21 02:14:32;;;;;;;6.43;3.93;;;;;;;15.33;75.11;101631.25;5152149;29;20059;-83
2023/05/21 02:17:14;;;;;;;;;;;;;;;16.48;67.46;101677.13;5135733;28;20045;-82
2023/05/21 02:19:54;;;;;;;4.47;3.73;;;;;;;15.77;72.72;101638.00;5151188;29;19950;-82
2023/05/21 02:22:31;;;;;;;11.27;4.80;;;;;;;15.42;73.96;101608.66;5152466;29;20089;-82
2023/05/21 02:25:03;;;;;;;4.87;3.70;;;;;;;15.32;74.80;101612.88;5160276;28;20056;-82
2023/05/21 02:27:38;;;;;;;6.00;3.97;;;;;;;15.35;74.73;101608.25;5172335;28;20502;-82
2023/05/21 02:30:21;;;;;;;5.25;3.70;;;;;;;15.33;75.57;101620.69;5171513;28;20113;-83
2023/05/21 02:32:59;;;;;;;4.13;3.50;;;;;;;15.54;74.74;101629.88;5155449;28;20344;-83
2023/05/21 02:35:35;;;;;;;4.33;3.63;;;;;;;15.47;74.26;101619.75;5155031;28;20027;-83
2023/05/21 02:38:18;;;;;;;8.37;4.00;;;;;;;15.58;74.28;101628.72;5154136;28;20034;-83
2023/05/21 02:40:51;;;;;;;5.63;3.57;;;;;;;15.43;74.93;101612.97;5153882;28;20031;-83
2023/05/21 02:43:38;;;;;;;5.82;3.63;;;;;;;15.64;75.00;101648.59;5168798;28;20039;-84
2023/05/21 02:46:16;;;;;;;4.83;3.67;;;;;;;15.64;74.78;101638.84;5154457;28;20023;-82
2023/05/21 02:48:55;;;;;;;5.10;3.90;;;;;;;15.79;73.21;101631.69;5171782;28;20129;-83
2023/05/21 02:51:34;;;;;;;5.07;3.70;;;;;;;15.51;76.16;101627.44;5171886;28;20076;-82
2023/05/21 02:54:08;;;;;;;8.13;3.47;;;;;;;15.72;73.33;101615.41;5154194;28;20026;-82
2023/05/21 02:56:44;;;;;;;4.53;3.38;;;;;;;15.52;75.42;101600.09;5147665;29;20073;-83
2023/05/21 02:59:18;;;;;;;7.80;4.30;;;;;;;15.73;76.65;101659.34;5134744;29;20039;-82
2023/05/21 03:01:49;;;;;;;8.30;3.72;;;;;;;15.46;77.18;101612.75;5134249;29;20077;-81
2023/05/21 03:04:21;;;;;;;9.23;3.53;;;;;;;15.41;76.55;101601.66;5154425;28;20031;-82
2023/05/21 03:06:54;;;;;;;4.67;3.90;;;;;;;15.43;78.84;101618.25;5146085;29;20058;-82
2023/05/21 03:09:29;;;;;;;6.10;3.83;;;;;;;15.28;78.23;101585.84;5150715;29;20299;-82
2023/05/21 03:12:00;;;;;;;11.27;4.33;;;;;;;15.58;78.36;101640.13;5134315;29;20016;-82
2023/05/21 03:14:32;;;;;;;6.97;3.90;;;;;;;15.72;77.09;101635.69;5147739;29;20050;-82
2023/05/21 03:17:12;;;;;;;10.57;3.93;;;;;;;15.29;78.27;101584.06;5151734;28;20031;-82
2023/05/21 03:19:44;;;;;;;6.13;4.27;;;;;;;15.68;76.34;101618.38;5165746;28;20101;-81
2023/05/21 03:22:15;;;;;;;7.57;4.20;;;;;;;15.51;79.15;101628.31;5168443;28;20051;-81
2023/05/21 03:24:47;;;;;;;7.30;3.63;;;;;;;15.66;78.11;101626.41;5157473;28;20109;-81
2023/05/21 03:27:19;;;;;;;4.13;3.73;;;;;;;15.42;78.37;101607.81;5171480;28;20025;-82
2023/05/21 03:29:53;;;;;;;6.90;4.73;;;;;;;15.25;81.17;101591.34;5170627;28;20027;-81
2023/05/21 03:32:25;;;;;;;5.53;3.83;;;;;;;15.30;79.79;101580.47;5170938;28;20053;-81
2023/05/21 03:34:56;;;;;;;4.93;3.80;;;;;;;15.31;79.07;101579.50;5171391;28;20446;-82
2023/05/21 03:37:31;;;;;;;6.27;4.57;;;;;;;15.51;77.96;101586.06;5156786;28;20024;-82
2023/05/21 03:40:03;;;;;;;4.97;4.20;;;;;;;15.53;78.72;101615.84;5148948;29;20451;-81
2023/05/21 03:42:35;;;;;;;5.60;4.40;;;;;;;15.44;79.67;101600.63;5150734;28;20403;-80
2023/05/21 03:45:07;;;;;;;7.60;4.60;;;;;;;15.77;79.16;101635.38;5150147;29;20038;-81
2023/05/21 03:47:40;;;;;;;4.57;4.03;;;;;;;15.52;80.12;101606.22;5164847;28;20670;-82
2023/05/21 03:50:12;;;;;;;7.47;4.35;;;;;;;15.59;80.67;101615.41;5171606;28;20097;-81
2023/05/21 03:52:49;;;;;;;5.23;4.33;;;;;;;15.49;79.79;101603.81;5173531;28;20471;-81
2023/05/21 03:55:23;;;;;;;7.57;4.60;;;;;;;15.32;81.93;101589.13;5175584;28;20038;-80
2023/05/21 03:57:54;;;;;;;5.38;4.88;;;;;;;15.25;82.47;101578.16;5176765;28;20042;-80
2023/05/21 04:00:26;;;;;;;7.17;5.30;;;;;;;15.56;81.17;101606.84;5192909;28;20626;-81
2023/05/21 04:02:57;;;;;;;8.77;4.50;;;;;;;15.41;81.57;101593.75;5175252;28;20035;-82
2023/05/21 04:05:32;;;;;;;7.23;4.37;;;;;;;15.46;80.78;101588.19;5172366;28;20039;-81
2023/05/21 04:08:09;;;;;;;5.90;4.37;;;;;;;15.46;79.68;101586.38;5154952;28;20063;-81
2023/05/21 04:10:43;;;;;;;5.83;4.87;;;;;;;15.75;79.75;101626.69;5154223;28;20041;-81
2023/05/21 04:13:15;;;;;;;6.57;4.38;;;;;;;15.77;79.46;101624.81;5163517;28;20156;-81
2023/05/21 04:15:47;;;;;;;6.87;5.37;;;;;;;15.54;83.01;101627.22;5174069;28;20070;-82
2023/05/21 04:18:22;;;;;;;8.00;4.90;;;;;;;15.33;83.06;101594.31;5169162;28;20058;-81
2023/05/21 04:20:54;;;;;;;5.67;4.67;;;;;;;15.21;84.16;101595.13;5136990;28;20019;-81
2023/05/21 04:23:26;;;;;;;5.33;4.83;;;;;;;15.19;84.39;101597.88;5164121;28;20046;-81
2023/05/21 04:25:57;;;;;;;6.90;5.60;;;;;;;15.42;85.61;101650.91;5172623;28;20673;-81
2023/05/21 04:28:29;;;;;;;6.77;5.07;;;;;;;15.54;82.08;101617.53;5182213;28;20023;-80
2023/05/21 04:31:01;;;;;;;5.37;4.50;;;;;;;15.36;84.54;101620.47;5160621;28;20027;-81
2023/05/21 04:33:32;;;;;;;5.57;4.53;;;;;;;15.35;82.12;101587.13;5171306;28;20034;-80
2023/05/21 04:36:08;;;;;;;5.20;4.53;;;;;;;15.58;83.03;101620.81;5169527;28;20023;-82
2023/05/21 04:38:41;;;;;;;8.30;5.07;;;;;;;15.54;82.45;101606.13;5151479;29;20122;-83
2023/05/21 04:41:17;;;;;;;8.70;5.93;;;;;;;15.51;84.61;101638.88;5153540;29;20019;-84
2023/05/21 04:43:53;;;;;;;5.53;4.17;;;;;;;15.41;83.84;101601.66;5153965;29;20042;-84
2023/05/21 04:46:25;;;;;;;6.07;5.03;;;;;;;15.53;83.39;101615.00;5153481;29;20479;-83
2023/05/21 04:49:01;;;;;;;6.60;5.07;;;;;;;15.43;84.70;101602.41;5149982;28;20029;-82
2023/05/21 04:51:33;;;;;;;6.33;4.77;;;;;;;15.71;82.54;101634.84;5171448;28;20023;-81
2023/05/21 04:54:04;;;;;;;8.07;4.60;;;;;;;15.51;83.78;101612.47;5171701;28;20019;-82
2023/05/21 04:56:35;;;;;;;8.63;5.80;;;;;;;15.32;86.04;101595.25;5135923;28;20028;-82
2023/05/21 04:59:07;;;;;;;7.13;4.73;;;;;;;15.69;85.88;101660.50;5153683;28;20222;-82
2023/05/21 05:01:38;;;;;;;12.50;6.00;;;;;;;15.54;86.25;101637.78;5160385;28;20038;-82
2023/05/21 05:04:10;;;;;;;8.97;5.20;;;;;;;15.57;86.54;101627.88;5172315;28;20486;-83
2023/05/21 05:06:43;;;;;;;6.17;4.97;;;;;;;15.60;85.98;101627.66;5173616;28;20065;-83
2023/05/21 05:09:15;;;;;;;7.28;5.70;;;;;;;15.60;87.08;101642.66;5172687;28;20474;-82
2023/05/21 05:11:46;;;;;;;6.57;5.13;;;;;;;15.33;86.75;101593.44;5173146;28;20037;-80
2023/05/21 05:14:18;;;;;;;8.07;5.27;;;;;;;15.59;84.95;101609.28;5173130;28;20066;-82
2023/05/21 05:16:50;;;;;;;6.33;5.37;;;;;;;15.67;86.65;101617.53;5154502;28;20030;-80
2023/05/21 05:19:21;;;;;;;7.70;6.27;;;;;;;15.60;85.49;101589.88;5142723;28;20051;-81
2023/05/21 05:21:53;;;;;;;7.17;5.30;;;;;;;15.62;85.25;101585.31;5151553;28;20098;-81
2023/05/21 05:24:24;;;;;;;9.50;6.13;;;;;;;15.90;83.71;101611.59;5166758;28;20031;-79
2023/05/21 05:26:55;;;;;;;8.00;5.13;;;;;;;15.91;83.51;101613.28;5159933;28;20038;-80
2023/05/21 05:29:27;;;;;;;8.27;6.03;;;;;;;16.01;84.51;101629.34;5166091;28;20080;-80
2023/05/21 05:31:58;;;;;;;5.67;4.87;;;;;;;15.91;85.71;101622.03;5167455;28;20026;-81
2023/05/21 05:34:30;;;;;;;6.93;5.83;;;;;;;16.24;82.55;101637.44;5156686;28;20034;-81
2023/05/21 05:37:01;;;;;;;8.17;5.90;;;;;;;15.95;85.42;101610.28;5145765;29;20122;-81
2023/05/21 05:39:33;;;;;;;6.23;5.57;;;;;;;16.05;84.16;101610.53;5139192;28;20126;-81
2023/05/21 05:42:04;;;;;;;7.60;5.73;;;;;;;15.88;86.21;101606.41;5172266;28;20609;-81
2023/05/21 05:44:35;;;;;;;8.30;5.60;;;;;;;16.09;84.69;101611.16;5171965;28;20030;-81
2023/05/21 05:47:09;;;;;;;6.80;6.10;;;;;;;16.20;84.52;101613.88;5154463;28;20058;-81
2023/05/21 05:49:41;;;;;;;9.38;6.07;;;;;;;16.19;82.48;101600.78;5155245;28;20034;-82
2023/05/21 05:52:12;;;;;;;9.10;6.03;;;;;;;16.19;85.03;101627.19;5147797;28;20016;-81
2023/05/21 05:54:43;;;;;;;7.93;5.90;;;;;;;16.20;84.58;101619.16;5151825;28;20098;-81
2023/05/21 05:57:15;;;;;;;7.87;5.37;;;;;;;16.10;84.33;101586.41;5135437;28;20096;-82
2023/05/21 05:59:49;;;;;;;10.03;6.23;;;;;;;16.37;83.80;101621.53;5135434;28;20717;-81
2023/05/21 06:02:23;;;;;;;;;;;;;;;17.12;78.86;101646.06;5135794;28;20029;-81
2023/05/21 06:04:54;;;;;;;7.90;5.87;;;;;;;16.50;83.48;101634.69;5152267;28;20281;-81
2023/05/21 06:07:26;;;;;;;7.37;6.23;;;;;;;16.38;83.71;101621.44;5135031;28;20030;-81
2023/05/21 06:09:57;;;;;;;7.80;6.00;;;;;;;16.53;82.91;101621.28;5151368;28;20027;-80
2023/05/21 06:12:29;;;;;;;6.70;5.47;;;;;;;16.65;82.28;101628.28;5150789;28;20023;-80
2023/05/21 06:15:00;;;;;;;6.50;5.80;;;;;;;16.68;82.73;101624.59;5171566;28;20467;-82
2023/05/21 06:17:31;;;;;;;8.27;5.70;;;;;;;16.81;82.84;101627.16;5172591;28;20019;-81
2023/05/21 06:20:04;;;;;;;11.10;6.27;;;;;;;16.78;79.80;101606.22;5172491;28;20479;-81
2023/05/21 06:22:37;;;;;;;6.73;6.03;;;;;;;16.99;80.13;101618.81;5171236;28;20027;-81
2023/05/21 06:25:09;;;;;;;12.85;7.03;;;;;;;17.06;80.10;101614.75;5172760;28;20148;-81
2023/05/21 06:27:40;;;;;;;7.87;6.40;;;;;;;17.11;78.22;101606.47;5170470;28;20106;-82
2023/05/21 06:30:12;;;;;;;7.30;6.53;;;;;;;17.20;78.35;101624.31;5172127;28;20027;-81
2023/05/21 06:32:43;;;;;;;8.23;5.93;;;;;;;17.37;78.99;101636.25;5170843;28;20047;-82
2023/05/21 06:35:15;;;;;;;10.93;6.23;;;;;;;17.31;76.96;101601.47;5171836;28;20153;-82
2023/05/21 06:37:47;;;;;;;7.93;6.40;;;;;;;17.36;78.13;101607.25;5153325;28;20031;-82
2023/05/21 06:40:19;;;;;;;8.27;6.33;;;;;;;17.56;77.87;101626.88;5171458;28;20026;-82
2023/05/21 06:42:50;;;;;;;7.73;5.87;;;;;;;17.58;78.39;101614.38;5170465;28;20679;-82
2023/05/21 06:45:22;;;;;;;8.17;6.13;;;;;;;17.73;78.38;101627.41;5154442;28;20027;-82
2023/05/21 06:47:53;;;;;;;7.53;6.00;;;;;;;17.83;76.17;101625.72;5171402;28;20030;-81
2023/05/21 06:50:25;;;;;;;7.33;6.50;;;;;;;17.96;75.87;101636.16;5170365;28;20073;-82
2023/05/21 06:52:56;;;;;;;6.77;6.07;;;;;;;17.93;75.69;101599.31;5152645;28;20023;-82
2023/05/21 06:55:27;;;;;;;8.87;6.37;;;;;;;18.11;74.05;101626.19;5154167;28;20029;-81
2023/05/21 06:57:59;;;;;;;7.27;6.57;;;;;;;18.24;73.72;101611.94;5170259;28;20423;-80
2023/05/21 07:00:30;;;;;;;13.00;6.57;;;;;;;18.49;73.66;101615.25;5170884;28;20027;-80
2023/05/21 07:03:02;;;;;;;10.03;6.83;;;;;;;18.42;71.51;101614.94;5170821;28;20541;-82
2023/05/21 07:05:33;;;;;;;8.97;6.93;;;;;;;18.38;70.87;101584.31;5154089;28;20429;-80
2023/05/21 07:08:05;;;;;;;10.23;6.03;;;;;;;18.72;70.56;101583.34;5170042;28;20027;-81
2023/05/21 07:10:36;;;;;;;7.47;6.37;;;;;;;18.94;69.26;101611.56;5153821;28;20023;-81
2023/05/21 07:13:08;;;;;;;7.97;6.40;;;;;;;19.17;69.89;101597.34;5171182;28;20043;-81
2023/05/21 07:15:39;;;;;;;9.17;6.83;;;;;;;19.20;68.43;101589.97;5153641;28;20027;-82
2023/05/21 07:18:10;;;;;;;11.40;6.10;;;;;;;19.46;67.00;101559.50;5170231;28;20023;-82
2023/05/21 07:20:42;;;;;;;6.10;5.33;;;;;;;19.81;64.94;101571.50;5153858;28;20056;-81
2023/05/21 07:23:13;;;;;;;8.13;6.13;;;;;;;20.19;63.87;101576.25;5170262;28;20089;-83
2023/05/21 07:25:45;;;;;;;8.33;6.27;;;;;;;20.54;62.57;101612.09;5153844;28;20060;-82
2023/05/21 07:28:16;;;;;;;7.87;5.40;;;;;;;20.98;61.07;101608.19;5170263;28;20023;-82
2023/05/21 07:30:48;;;;;;;8.90;6.03;;;;;;;21.20;59.23;101627.50;5153554;28;20023;-82
2023/05/21 07:33:21;;;;;;;9.87;6.77;;;;;;;21.45;58.36;101593.19;5170791;28;20027;-82
2023/05/21 07:35:52;;;;;;;7.22;6.53;;;;;;;21.43;57.40;101573.03;5170846;28;20034;-82
2023/05/21 07:38:25;;;;;;;9.33;6.20;;;;;;;21.69;56.44;101583.00;5166758;28;20035;-82
2023/05/21 07:40:58;;;;;;;9.50;5.57;;;;;;;22.07;55.25;101594.47;5149209;29;20031;-82
2023/05/21 07:43:30;;;;;;;7.72;6.28;;;;;;;22.34;52.88;101586.59;5137387;28;20109;-81
2023/05/21 07:46:33;;;;;;;10.77;6.17;;;;;;;23.12;53.84;101626.09;5143583;29;20161;-81
2023/05/21 07:49:04;;;;;;;7.13;6.00;;;;;;;22.96;52.42;101603.63;5150374;29;20038;-81
2023/05/21 07:51:35;;;;;;;7.63;5.57;;;;;;;23.18;52.11;101594.25;5150277;29;20468;-82
2023/05/21 07:54:07;;;;;;;11.00;6.47;;;;;;;23.63;50.62;101601.38;5166031;28;20027;-83
2023/05/21 07:56:38;;;;;;;6.15;5.25;;;;;;;24.11;49.08;101604.34;5170097;28;20536;-82
2023/05/21 07:59:09;;;;;;;6.30;5.70;;;;;;;24.53;47.95;101620.50;5167884;28;20027;-81
2023/05/21 08:01:42;;;;;;;8.20;5.95;;;;;;;24.45;46.94;101601.75;5149679;28;20027;-83
2023/05/21 08:04:13;;;;;;;7.65;5.72;;;;;;;24.55;46.70;101594.41;5169205;28;20122;-82
2023/05/21 08:06:45;;;;;;;6.43;5.82;;;;;;;24.28;46.61;101577.63;5156383;28;20098;-82
2023/05/21 08:09:17;;;;;;;7.03;6.07;;;;;;;24.75;46.29;101586.03;5149268;29;20102;-82
2023/05/21 08:11:48;;;;;;;9.05;5.82;;;;;;;25.13;45.88;101578.28;5165458;28;20031;-82
2023/05/21 08:14:20;;;;;;;9.52;5.80;;;;;;;25.47;45.26;101589.72;5170053;28;20043;-81
2023/05/21 08:16:51;;;;;;;6.70;6.05;;;;;;;25.52;43.25;101602.63;5169691;28;20029;-83
2023/05/21 08:19:23;;;;;;;7.40;6.68;;;;;;;25.81;43.75;101616.44;5170204;28;20039;-81
2023/05/21 08:21:54;;;;;;;8.77;6.07;;;;;;;25.74;43.14;101568.84;5161445;28;20058;-81
2023/05/21 08:24:25;;;;;;;11.50;6.82;;;;;;;26.07;43.12;101626.88;5162503;28;20475;-80
2023/05/21 08:26:57;;;;;;;8.68;6.43;;;;;;;26.35;41.95;101617.50;5151847;28;20091;-81
2023/05/21 08:29:28;;;;;;;8.50;6.60;;;;;;;26.53;41.28;101570.72;5138698;28;20106;-81
2023/05/21 08:32:00;;;;;;;9.70;6.80;;;;;;;27.15;40.63;101568.78;5169353;28;20413;-81
2023/05/21 08:34:31;;;;;;;8.77;6.68;;;;;;;26.93;40.75;101578.56;5151553;28;20034;-81
2023/05/21 08:37:03;;;;;;;9.80;6.25;;;;;;;26.78;40.29;101557.03;5156266;28;20294;-82
2023/05/21 08:39:34;;;;;;;8.25;6.00;;;;;;;27.72;39.32;101600.53;5172411;28;20478;-81
2023/05/21 08:42:19;;;;;;;8.23;6.45;;;;;;;27.84;39.59;101563.19;5156523;28;20031;-83
2023/05/21 08:44:51;;;;;;;10.68;7.07;;;;;;;27.81;38.54;101598.56;5156612;28;20033;-83
2023/05/21 08:47:26;;;;;;;8.17;6.03;;;;;;;27.98;38.35;101558.78;5173926;28;20114;-84
2023/05/21 08:49:59;;;;;;;9.25;6.10;;;;;;;28.49;37.61;101548.91;5173043;28;20029;-83
2023/05/21 08:52:31;;;;;;;;;;;;;;;30.34;37.52;101602.69;5172955;28;20026;-84
2023/05/21 08:55:04;;;;;;;9.10;5.90;;;;;;;28.75;36.63;101582.47;5173581;28;19975;-82
2023/05/21 08:57:35;;;;;;;7.80;6.60;;;;;;;28.92;35.98;101595.63;5172802;28;20034;-81
2023/05/21 09:00:07;;;;;;;6.95;6.03;;;;;;;29.28;35.78;101584.88;5155249;28;20026;-82
2023/05/21 09:02:39;;;;;;;9.93;6.90;;;;;;;29.30;36.09;101572.03;5155134;28;20038;-83
2023/05/21 09:05:14;;;;;;;7.35;6.43;;;;;;;29.85;34.58;101560.41;5172183;28;20575;-81
2023/05/21 09:07:59;;;;;;;7.32;6.63;;;;;;;29.86;35.69;101563.94;5171618;28;20053;-83
2023/05/21 09:10:44;;;;;;;8.38;6.68;;;;;;;30.86;34.07;101572.34;5172709;28;20102;-83
2023/05/21 09:13:18;;;;;;;10.35;7.32;;;;;;;30.37;33.17;101578.78;5173933;28;20043;-84
2023/05/21 09:15:50;;;;;;;7.82;7.03;;;;;;;29.81;33.56;101562.69;5155382;28;20026;-83
2023/05/21 09:18:21;;;;;;;7.30;6.13;;;;;;;29.82;34.10;101563.53;5173182;28;20020;-83
2023/05/21 09:20:58;;;;;;;8.00;6.20;;;;;;;31.09;32.65;101568.31;5137767;29;20057;-85
2023/05/21 09:23:29;;;;;;;7.88;6.22;;;;;;;31.14;32.65;101569.34;5151945;29;20360;-85
2023/05/21 09:26:11;;;;;;;12.13;6.82;;;;;;;31.08;33.43;101559.38;5153118;29;20077;-85
2023/05/21 09:28:45;;;;;;;7.57;6.40;;;;;;;30.57;33.40;101585.22;5142182;28;20019;-84
2023/05/21 09:31:17;;;;;;;13.25;5.95;;;;;;;30.04;33.67;101563.38;5173105;28;20581;-87
2023/05/21 09:33:49;;;;;;;8.05;6.53;;;;;;;29.50;34.42;101574.00;5173312;28;20035;-88
2023/05/21 09:36:20;;;;;;;8.07;5.95;;;;;;;29.85;34.50;101551.50;5174203;28;20105;-85
2023/05/21 09:38:52;;;;;;;10.30;6.88;;;;;;;29.79;34.41;101542.34;5154097;28;20033;-85
2023/05/21 09:41:35;;;;;;;6.35;5.53;;;;;;;30.91;34.22;101575.25;5155550;28;20037;-85
2023/05/21 09:44:09;;;;;;;6.22;5.63;;;;;;;30.81;33.41;101586.44;5173022;28;20027;-86
2023/05/21 09:46:43;;;;;;;10.40;6.88;;;;;;;31.20;33.41;101566.81;5171469;28;20027;-85
2023/05/21 09:49:27;;;;;;;7.20;6.43;;;;;;;31.58;33.38;101563.34;5171338;28;20841;-85
2023/05/21 09:52:00;;;;;;;;;;;;;;;33.16;31.92;101586.28;5151847;28;20018;-86
2023/05/21 09:54:34;;;;;;;9.95;7.07;;;;;;;31.07;32.36;101546.06;5172045;28;19936;-84
2023/05/21 09:57:05;;;;;;;12.23;6.55;;;;;;;31.33;31.80;101555.94;5173110;28;20052;-87
2023/05/21 09:59:40;;;;;;;6.93;6.15;;;;;;;31.38;32.63;101558.00;5154506;28;20076;-85
2023/05/21 10:02:18;;;;;;;8.98;6.90;;;;;;;31.55;32.63;101542.13;5155486;28;20023;-87
2023/05/21 10:04:50;;;;;;;6.50;5.70;;;;;;;32.35;31.47;101566.19;5171647;28;20038;-84
2023/05/21 10:07:25;;;;;;;7.97;6.47;;;;;;;32.06;31.62;101550.38;5163179;28;20367;-85
2023/05/21 10:09:58;;;;;;;6.82;6.05;;;;;;;31.94;31.98;101571.06;5158040;28;20027;-85
2023/05/21 10:12:32;;;;;;;8.85;6.43;;;;;;;32.38;30.49;101546.75;5173702;28;20019;-86
2023/05/21 10:15:08;;;;;;;8.07;6.22;;;;;;;32.83;31.57;101555.75;5175509;28;20039;-86
2023/05/21 10:17:41;;;;;;;11.82;7.13;;;;;;;32.15;30.87;101540.09;5160799;28;20514;-85
2023/05/21 10:20:13;;;;;;;8.32;6.72;;;;;;;32.24;31.21;101537.91;5172778;28;20783;-84
2023/05/21 10:22:49;;;;;;;7.95;6.32;;;;;;;33.07;30.02;101518.75;5153852;28;20084;-83
2023/05/21 10:25:21;;;;;;;8.57;6.78;;;;;;;32.96;30.49;101522.22;5172391;28;20027;-86
2023/05/21 10:27:54;;;;;;;12.13;6.97;;;;;;;32.70;30.80;101549.41;5170990;28;20034;-86
2023/05/21 10:30:26;;;;;;;9.23;7.50;;;;;;;32.81;30.29;101518.00;5156002;28;20022;-86
2023/05/21 10:33:00;;;;;;;9.63;7.18;;;;;;;32.41;30.69;101553.63;5171706;28;20382;-86
2023/05/21 10:35:32;;;;;;;9.02;7.65;;;;;;;32.32;30.68;101502.44;5167863;28;20076;-85
2023/05/21 10:38:05;;;;;;;11.77;7.80;;;;;;;33.07;30.30;101535.03;5150927;29;20031;-85
2023/05/21 10:40:39;;;;;;;11.90;8.50;;;;;;;32.75;30.20;101548.72;5160003;28;20035;-84
2023/05/21 10:43:40;;;;;;;10.05;8.10;;;;;;;33.35;30.33;101518.41;5166846;28;20452;-85
2023/05/21 10:46:11;;;;;;;12.20;7.75;;;;;;;32.77;30.71;101543.91;5147166;29;20084;-86
2023/05/21 10:48:51;;;;;;;7.55;6.78;;;;;;;33.82;29.44;101539.50;5163843;28;20478;-84
2023/05/21 10:51:28;;;;;;;10.35;7.35;;;;;;;33.68;29.49;101507.13;5154230;28;20083;-86
2023/05/21 10:54:37;;;;;;;8.77;7.88;;;;;;;34.23;29.37;101541.59;5169145;28;20479;-89
2023/05/21 10:57:56;;;;;;;8.95;8.00;;;;;;;34.41;29.08;101527.03;5153880;28;20031;-84
2023/05/21 11:00:30;;;;;;;9.75;7.35;;;;;;;33.50;29.46;101499.81;5169995;28;20015;-84
2023/05/21 11:03:03;;;;;;;8.80;6.55;;;;;;;33.82;29.10;101506.91;5169461;28;20031;-85
2023/05/21 11:05:42;;;;;;;8.52;7.70;;;;;;;33.58;29.33;101500.56;5169446;28;20406;-86
2023/05/21 11:08:33;;;;;;;15.07;7.68;;;;;;;33.11;30.20;101480.34;5148637;29;20050;-85
2023/05/21 11:11:05;;;;;;;11.25;7.55;;;;;;;32.95;30.27;101477.16;5149629;29;20398;-85
2023/05/21 11:13:50;;;;;;;10.32;7.45;;;;;;;33.40;30.00;101472.41;5152970;28;20058;-86
2023/05/21 11:16:24;;;;;;;9.60;8.43;;;;;;;32.88;30.58;101492.69;5153885;28;20588;-86
2023/05/21 11:18:56;;;;;;;10.65;8.85;;;;;;;33.10;30.25;101479.50;5164351;28;20046;-85
2023/05/21 11:21:29;;;;;;;9.95;8.77;;;;;;;32.38;31.16;101489.84;5134472;28;20026;-84
2023/05/21 11:24:03;;;;;;;8.70;7.90;;;;;;;32.74;30.69;101457.59;5150796;28;20486;-84
2023/05/21 11:26:47;;;;;;;11.20;9.88;;;;;;;32.39;30.73;101480.69;5134092;28;20031;-84
2023/05/21 11:29:18;;;;;;;10.85;8.75;;;;;;;31.74;31.95;101461.00;5150773;28;20391;-84
2023/05/21 11:32:01;;;;;;;12.05;9.10;;;;;;;32.69;30.59;101446.59;5145152;28;20061;-84
2023/05/21 11:34:51;;;;;;;15.03;9.30;;;;;;;32.61;31.53;101466.72;5166858;28;20025;-82
2023/05/21 11:37:26;;;;;;;12.65;8.73;;;;;;;31.74;32.93;101440.19;5151961;28;20596;-83
2023/05/21 11:40:24;;;;;;;11.80;8.95;;;;;;;31.82;32.46;101428.22;5266554;28;20052;-83
2023/05/21 11:42:56;;;;;;;13.82;9.32;;;;;;;32.09;30.97;101425.31;5189172;28;20113;-83
2023/05/21 11:45:31;;;;;;;10.95;9.85;;;;;;;32.27;31.51;101458.91;5153281;28;20126;-83
2023/05/21 11:48:05;;;;;;;10.77;9.68;;;;;;;31.06;33.40;101439.75;5170688;28;20019;-83
2023/05/21 11:50:36;;;;;;;10.00;9.00;;;;;;;31.57;32.17;101441.75;5153211;28;20509;-84
2023/05/21 11:53:10;;;;;;;10.25;9.13;;;;;;;31.60;32.78;101415.09;5166169;28;20054;-85
2023/05/21 11:55:56;;;;;;;12.50;10.25;;;;;;;31.53;32.86;101422.44;5166620;28;20023;-85
2023/05/21 11:58:32;;;;;;;13.32;10.20;;;;;;;31.63;32.58;101435.47;5153876;28;20160;-84
2023/05/21 12:01:06;;;;;;;12.30;10.63;;;;;;;30.61;33.09;101424.31;5170835;28;20065;-85